Time;durP1;ratioP1;P1;durP2;ratioP2;P2;SDS_P1;SDS_P2;PMS_P1;PMS_P2;Temp;Humidity;BMP_temperature;BMP_pressure;BME280_temperature;BME280_humidity;BME280_pressure;Samples;Min_cycle;Max_cycle;Signal;HPM_P1;HPM_P2
2023/03/04 00:01:15;;;;;;;303.30;65.05;;;6.10;99.90;;;;;;5072862;28;20516;-79
2023/03/04 00:03:41;;;;;;;277.15;61.90;;;6.20;99.90;;;;;;5087239;28;20116;-80
2023/03/04 00:06:06;;;;;;;286.27;62.45;;;6.10;99.90;;;;;;5092859;28;20106;-77
2023/03/04 00:08:32;;;;;;;325.10;59.53;;;6.20;99.90;;;;;;5093182;28;20386;-78
2023/03/04 00:10:58;;;;;;;324.55;57.60;;;6.20;99.90;;;;;;5091638;28;20032;-77
2023/03/04 00:13:24;;;;;;;289.20;52.83;;;6.10;99.90;;;;;;5078896;28;20388;-79
2023/03/04 00:15:49;;;;;;;297.60;56.38;;;6.10;99.90;;;;;;5076144;28;20081;-78
2023/03/04 00:18:17;;;;;;;285.00;57.00;;;6.10;99.90;;;;;;5076070;28;20027;-78
2023/03/04 00:20:42;;;;;;;282.88;58.28;;;6.00;99.90;;;;;;5076141;28;20108;-78
2023/03/04 00:23:08;;;;;;;247.52;56.42;;;6.10;99.90;;;;;;5075056;28;20457;-80
2023/03/04 00:25:34;;;;;;;261.50;59.63;;;6.00;99.90;;;;;;5074701;28;20020;-79
2023/03/04 00:28:00;;;;;;;238.02;60.63;;;6.00;99.90;;;;;;5075625;28;20051;-79
2023/03/04 00:30:26;;;;;;;229.40;56.22;;;6.00;99.90;;;;;;5085065;28;20025;-80
2023/03/04 00:32:52;;;;;;;230.85;59.08;;;6.00;99.90;;;;;;5096114;28;20062;-79
2023/03/04 00:35:17;;;;;;;201.93;53.65;;;6.10;99.90;;;;;;5082200;28;20056;-80
2023/03/04 00:37:43;;;;;;;242.82;56.65;;;6.10;99.90;;;;;;5074802;28;20028;-82
2023/03/04 00:40:09;;;;;;;246.35;59.83;;;6.00;99.90;;;;;;5075451;28;20026;-79
2023/03/04 00:42:35;;;;;;;234.32;53.67;;;6.10;99.90;;;;;;5073758;28;20468;-77
2023/03/04 00:45:01;;;;;;;246.27;53.38;;;6.10;99.90;;;;;;5075902;28;20032;-79
2023/03/04 00:47:26;;;;;;;244.13;56.70;;;6.10;99.90;;;;;;5087722;28;20109;-80
2023/03/04 00:49:52;;;;;;;251.13;58.05;;;6.10;99.90;;;;;;5095808;28;20039;-81
2023/03/04 00:52:18;;;;;;;275.00;58.63;;;6.10;99.90;;;;;;5095376;28;20020;-79
2023/03/04 00:54:43;;;;;;;240.02;55.40;;;6.10;99.90;;;;;;5095297;28;20545;-79
2023/03/04 00:57:09;;;;;;;247.85;50.53;;;6.10;99.90;;;;;;5087603;28;20044;-80
2023/03/04 00:59:35;;;;;;;245.77;50.95;;;6.10;99.90;;;;;;5083753;28;20472;-79
2023/03/04 01:02:00;;;;;;;236.43;49.03;;;6.10;99.90;;;;;;5095787;28;20066;-78
2023/03/04 01:04:26;;;;;;;246.13;54.75;;;6.00;99.90;;;;;;5085751;28;20029;-78
2023/03/04 01:06:52;;;;;;;247.45;50.65;;;6.10;99.90;;;;;;5090875;28;20064;-80
2023/03/04 01:09:18;;;;;;;232.85;50.53;;;6.10;99.90;;;;;;5092374;28;20024;-78
2023/03/04 01:11:43;;;;;;;238.73;51.47;;;6.10;99.90;;;;;;5074286;28;20032;-80
2023/03/04 01:14:09;;;;;;;245.07;56.50;;;6.00;99.90;;;;;;5074832;28;20431;-80
2023/03/04 01:16:35;;;;;;;240.30;54.38;;;6.00;99.90;;;;;;5075196;28;20032;-80
2023/03/04 01:19:01;;;;;;;220.65;53.08;;;6.10;99.90;;;;;;5073988;28;20115;-77
2023/03/04 01:21:26;;;;;;;229.18;50.80;;;6.10;99.90;;;;;;5084532;28;20028;-78
2023/03/04 01:23:52;;;;;;;223.60;52.97;;;6.10;99.90;;;;;;5084659;28;20032;-78
2023/03/04 01:26:18;;;;;;;212.55;49.88;;;6.10;99.90;;;;;;5082270;28;20484;-79
2023/03/04 01:28:43;;;;;;;203.82;51.92;;;6.10;99.90;;;;;;5085642;28;20023;-79
2023/03/04 01:31:09;;;;;;;211.65;52.05;;;6.10;99.90;;;;;;5082074;28;20487;-79
2023/03/04 01:33:35;;;;;;;205.98;53.63;;;6.10;99.90;;;;;;5087847;28;20028;-78
2023/03/04 01:36:00;;;;;;;212.77;53.17;;;6.10;99.90;;;;;;5081662;28;20028;-78
2023/03/04 01:38:26;;;;;;;207.65;53.00;;;6.10;99.90;;;;;;5086722;28;20475;-77
2023/03/04 01:40:52;;;;;;;213.90;53.25;;;6.10;99.90;;;;;;5081647;28;20101;-80
2023/03/04 01:43:22;;;;;;;197.38;51.28;;;6.10;99.90;;;;;;5081130;28;20116;-80
2023/03/04 01:45:49;;;;;;;185.23;52.58;;;6.10;99.90;;;;;;5080190;28;20153;-77
2023/03/04 01:48:21;;;;;;;200.00;52.30;;;6.10;99.90;;;;;;5090143;28;20020;-78
2023/03/04 01:50:46;;;;;;;202.70;51.95;;;6.10;99.90;;;;;;5085497;28;20016;-77
2023/03/04 01:53:24;;;;;;;188.60;50.72;;;6.10;99.90;;;;;;5082926;28;20031;-80
2023/03/04 01:55:52;;;;;;;174.82;49.53;;;6.10;99.90;;;;;;5076664;28;20052;-79
2023/03/04 01:58:17;;;;;;;179.68;48.60;;;6.00;99.90;;;;;;5078695;28;20024;-76
2023/03/04 02:00:44;;;;;;;169.15;47.85;;;6.00;99.90;;;;;;5094733;28;20077;-77
2023/03/04 02:03:13;;;;;;;166.95;48.25;;;6.00;99.90;;;;;;5094313;28;20410;-77
2023/03/04 02:05:43;;;;;;;169.38;46.38;;;6.00;99.90;;;;;;5094677;28;20016;-78
2023/03/04 02:08:09;;;;;;;155.90;47.90;;;6.00;99.90;;;;;;5094617;28;20111;-79
2023/03/04 02:10:35;;;;;;;162.38;46.13;;;6.00;99.90;;;;;;5089168;28;20024;-78
2023/03/04 02:13:02;;;;;;;149.20;47.95;;;6.00;99.90;;;;;;5074230;28;20456;-79
2023/03/04 02:15:28;;;;;;;159.05;45.08;;;6.00;99.90;;;;;;5077177;28;20028;-80
2023/03/04 02:17:54;;;;;;;136.65;44.80;;;6.00;99.90;;;;;;5082040;28;20028;-80
2023/03/04 02:20:25;;;;;;;148.95;44.97;;;6.10;99.90;;;;;;5087746;28;20464;-77
2023/03/04 02:23:10;;;;;;;149.90;46.97;;;6.10;99.90;;;;;;5082212;28;20024;-79
2023/03/04 02:26:03;;;;;;;148.07;45.47;;;6.00;99.90;;;;;;5083701;28;20111;-80
2023/03/04 02:28:29;;;;;;;150.55;45.92;;;6.00;99.90;;;;;;5081366;28;20403;-78
2023/03/04 02:30:55;;;;;;;145.90;43.83;;;6.00;99.90;;;;;;5086680;28;20028;-78
2023/03/04 02:33:20;;;;;;;149.13;45.88;;;6.00;99.90;;;;;;5085222;28;20123;-80
2023/03/04 02:35:46;;;;;;;130.25;45.28;;;6.00;99.90;;;;;;5080525;28;20029;-78
2023/03/04 02:38:12;;;;;;;144.95;44.33;;;6.00;99.90;;;;;;5083316;28;20035;-80
2023/03/04 02:40:40;;;;;;;145.32;45.60;;;6.00;99.90;;;;;;5081407;28;20020;-80
2023/03/04 02:43:10;;;;;;;137.43;45.85;;;6.00;99.90;;;;;;5083502;28;20059;-81
2023/03/04 02:45:40;;;;;;;143.32;43.53;;;6.00;99.90;;;;;;5081834;28;20502;-80
2023/03/04 02:48:07;;;;;;;129.30;44.35;;;6.00;99.90;;;;;;5083591;28;20492;-80
2023/03/04 02:50:43;;;;;;;128.43;44.85;;;6.00;99.90;;;;;;5084165;28;20057;-79
2023/03/04 02:53:09;;;;;;;131.43;43.47;;;6.00;99.90;;;;;;5084679;28;20024;-79
2023/03/04 02:55:34;;;;;;;127.88;43.42;;;6.00;99.90;;;;;;5080760;28;20050;-78
2023/03/04 02:58:00;;;;;;;120.53;43.58;;;5.90;99.90;;;;;;5082990;28;20044;-78
2023/03/04 03:00:26;;;;;;;128.65;43.55;;;6.00;99.90;;;;;;5085658;28;20480;-80
2023/03/04 03:02:52;;;;;;;122.10;43.22;;;6.00;99.90;;;;;;5082773;28;20204;-78
2023/03/04 03:05:19;;;;;;;120.53;39.80;;;5.90;99.90;;;;;;5080401;28;20051;-78
2023/03/04 03:07:44;;;;;;;102.78;42.17;;;5.90;99.90;;;;;;5085229;28;20036;-78
2023/03/04 03:10:11;;;;;;;116.45;42.67;;;5.90;99.90;;;;;;5080792;28;20099;-79
2023/03/04 03:12:36;;;;;;;105.25;41.63;;;5.90;99.90;;;;;;5080747;28;20159;-79
2023/03/04 03:15:02;;;;;;;103.30;40.10;;;5.90;99.90;;;;;;5080215;28;20543;-78
2023/03/04 03:17:28;;;;;;;115.53;43.75;;;6.00;99.90;;;;;;5084089;28;20032;-79
2023/03/04 03:19:54;;;;;;;115.55;41.17;;;5.90;99.90;;;;;;5081977;28;20020;-78
2023/03/04 03:22:19;;;;;;;110.90;41.30;;;5.90;99.90;;;;;;5077756;28;20104;-78
2023/03/04 03:24:45;;;;;;;113.10;41.17;;;5.90;99.90;;;;;;5084554;28;20031;-78
2023/03/04 03:27:11;;;;;;;107.03;42.38;;;6.00;99.90;;;;;;5080012;28;20033;-79
2023/03/04 03:29:36;;;;;;;114.50;44.40;;;6.00;99.90;;;;;;5084062;28;20074;-81
2023/03/04 03:32:02;;;;;;;119.78;46.08;;;6.00;99.90;;;;;;5081202;28;20025;-79
2023/03/04 03:34:28;;;;;;;114.63;46.03;;;5.90;99.90;;;;;;5082224;28;20024;-79
2023/03/04 03:36:53;;;;;;;109.63;43.30;;;5.90;99.90;;;;;;5082747;28;20054;-80
2023/03/04 03:39:19;;;;;;;120.43;43.08;;;5.90;99.90;;;;;;5081286;28;20100;-78
2023/03/04 03:41:44;;;;;;;105.95;43.05;;;5.90;99.90;;;;;;5085772;28;20039;-80
2023/03/04 03:44:10;;;;;;;115.97;43.67;;;5.90;99.90;;;;;;5081285;28;20036;-80
2023/03/04 03:46:36;;;;;;;110.55;41.90;;;5.90;99.90;;;;;;5085688;28;20438;-79
2023/03/04 03:49:02;;;;;;;114.22;44.58;;;5.90;99.90;;;;;;5087561;28;20024;-80
2023/03/04 03:51:27;;;;;;;112.65;43.97;;;5.90;99.90;;;;;;5083246;28;20035;-78
2023/03/04 03:53:53;;;;;;;118.78;43.85;;;5.90;99.90;;;;;;5084318;28;20089;-79
2023/03/04 03:56:19;;;;;;;115.57;44.33;;;5.90;99.90;;;;;;5092901;28;20139;-78
2023/03/04 03:58:44;;;;;;;115.32;44.70;;;5.90;99.90;;;;;;5092698;28;20488;-79
2023/03/04 04:01:10;;;;;;;117.00;44.55;;;5.90;99.90;;;;;;5076681;28;20025;-78
2023/03/04 04:03:36;;;;;;;118.70;43.88;;;5.90;99.90;;;;;;5076420;28;20390;-77
2023/03/04 04:06:01;;;;;;;118.78;42.45;;;5.90;99.90;;;;;;5075023;28;20029;-78
2023/03/04 04:08:27;;;;;;;107.15;42.85;;;5.90;99.90;;;;;;5076812;28;20025;-77
2023/03/04 04:10:53;;;;;;;112.72;44.08;;;5.90;99.90;;;;;;5079149;28;20020;-77
2023/03/04 04:13:18;;;;;;;110.70;44.22;;;5.90;99.90;;;;;;5096816;28;20414;-79
2023/03/04 04:15:44;;;;;;;105.38;41.90;;;5.90;99.90;;;;;;5096510;28;20056;-79
2023/03/04 04:18:10;;;;;;;102.15;41.60;;;5.90;99.90;;;;;;5095451;28;20024;-81
2023/03/04 04:20:35;;;;;;;97.75;40.67;;;5.90;99.90;;;;;;5095325;28;20420;-79
2023/03/04 04:23:02;;;;;;;111.22;42.33;;;5.90;99.90;;;;;;5091996;28;20030;-79
2023/03/04 04:25:28;;;;;;;109.78;42.42;;;5.90;99.90;;;;;;5084692;28;20390;-81
2023/03/04 04:27:53;;;;;;;118.10;43.03;;;5.80;99.90;;;;;;5085562;28;20037;-80
2023/03/04 04:30:19;;;;;;;113.93;45.55;;;5.90;99.90;;;;;;5084272;28;20033;-78
2023/03/04 04:32:45;;;;;;;114.78;43.80;;;5.90;99.90;;;;;;5088694;28;20534;-79
2023/03/04 04:35:11;;;;;;;116.88;44.75;;;5.80;99.90;;;;;;5086608;28;20456;-78
2023/03/04 04:37:36;;;;;;;108.65;44.10;;;5.80;99.90;;;;;;5082550;28;20032;-76
2023/03/04 04:40:03;;;;;;;119.60;44.53;;;5.80;99.90;;;;;;5083024;28;20025;-79
2023/03/04 04:42:29;;;;;;;118.00;44.67;;;5.80;99.90;;;;;;5086897;28;20024;-79
2023/03/04 04:44:56;;;;;;;118.28;43.83;;;5.80;99.90;;;;;;5084624;28;20033;-79
2023/03/04 04:47:21;;;;;;;110.57;45.55;;;5.80;99.90;;;;;;5086755;28;20036;-78
2023/03/04 04:49:47;;;;;;;135.52;49.47;;;5.80;99.90;;;;;;5086469;28;20031;-78
2023/03/04 04:52:13;;;;;;;119.97;45.75;;;5.80;99.90;;;;;;5080929;28;20381;-78
2023/03/04 04:54:39;;;;;;;121.90;47.08;;;5.80;99.90;;;;;;5080576;28;20032;-79
2023/03/04 04:57:04;;;;;;;123.85;49.92;;;5.80;99.90;;;;;;5088903;28;20376;-78
2023/03/04 04:59:30;;;;;;;127.55;50.83;;;5.80;99.90;;;;;;5082198;28;20381;-78
2023/03/04 05:01:56;;;;;;;128.27;47.75;;;5.70;99.90;;;;;;5088257;28;20024;-79
2023/03/04 05:04:21;;;;;;;117.25;46.28;;;5.80;99.90;;;;;;5084810;28;20040;-78
2023/03/04 05:06:47;;;;;;;130.93;48.75;;;5.70;99.90;;;;;;5080536;28;20036;-77
2023/03/04 05:09:13;;;;;;;122.30;48.50;;;5.70;99.90;;;;;;5081314;28;20028;-81
2023/03/04 05:11:38;;;;;;;128.18;50.75;;;5.70;99.90;;;;;;5084735;28;20040;-78
2023/03/04 05:14:04;;;;;;;127.32;49.05;;;5.70;99.90;;;;;;5083396;28;20068;-78
2023/03/04 05:16:30;;;;;;;140.20;54.22;;;5.80;99.90;;;;;;5082350;28;20392;-79
2023/03/04 05:18:56;;;;;;;134.05;54.05;;;5.80;99.90;;;;;;5083363;28;20024;-80
2023/03/04 05:21:21;;;;;;;132.93;52.08;;;5.80;99.90;;;;;;5087523;28;20043;-79
2023/03/04 05:23:47;;;;;;;143.38;56.00;;;5.80;99.90;;;;;;5078688;28;20428;-79
2023/03/04 05:26:15;;;;;;;145.20;55.72;;;5.80;99.90;;;;;;5086316;28;20484;-80
2023/03/04 05:28:41;;;;;;;160.27;59.60;;;5.80;99.90;;;;;;5084205;28;20024;-78
2023/03/04 05:31:07;;;;;;;179.60;66.32;;;5.80;99.90;;;;;;5081569;28;20034;-78
2023/03/04 05:33:33;;;;;;;199.63;80.35;;;5.80;99.90;;;;;;5083518;28;20059;-80
2023/03/04 05:36:00;;;;;;;195.30;74.22;;;5.80;99.90;;;;;;5081469;28;20109;-79
2023/03/04 05:38:25;;;;;;;172.00;70.05;;;5.80;99.90;;;;;;5082510;28;20437;-78
2023/03/04 05:40:57;;;;;;;177.93;68.53;;;5.80;99.90;;;;;;5086527;28;20056;-79
2023/03/04 05:43:23;;;;;;;;;;;5.80;99.90;;;;;;5081602;28;20039;-78
2023/03/04 05:45:49;;;;;;;168.20;67.72;;;5.80;99.90;;;;;;5085258;28;19919;-80
2023/03/04 05:48:14;;;;;;;190.05;70.30;;;5.80;99.90;;;;;;5082659;28;20507;-79
2023/03/04 05:50:40;;;;;;;181.82;65.47;;;5.80;99.90;;;;;;5084100;28;20032;-79
2023/03/04 05:53:06;;;;;;;169.80;64.43;;;5.80;99.90;;;;;;5082355;28;20054;-78
2023/03/04 05:55:32;;;;;;;161.55;61.75;;;5.90;99.90;;;;;;5093932;28;20076;-80
2023/03/04 05:57:57;;;;;;;154.10;60.42;;;5.90;99.90;;;;;;5088330;28;20059;-80
2023/03/04 06:00:24;;;;;;;146.48;59.10;;;5.90;99.90;;;;;;5074474;28;20090;-80
2023/03/04 06:02:50;;;;;;;145.52;57.53;;;5.90;99.90;;;;;;5072704;28;20025;-80
2023/03/04 06:05:16;;;;;;;152.85;58.28;;;5.90;99.90;;;;;;5074351;28;20025;-78
2023/03/04 06:07:43;;;;;;;161.25;60.35;;;6.00;99.90;;;;;;5072958;28;20036;-80
2023/03/04 06:10:11;;;;;;;156.98;59.03;;;5.90;99.90;;;;;;5080629;28;20470;-80
2023/03/04 06:12:37;;;;;;;152.48;57.20;;;6.00;99.90;;;;;;5094031;28;20020;-80
2023/03/04 06:15:04;;;;;;;143.73;56.83;;;6.00;99.90;;;;;;5075880;28;20028;-78
2023/03/04 06:17:30;;;;;;;151.73;57.78;;;6.00;99.90;;;;;;5083312;28;20145;-81
2023/03/04 06:19:56;;;;;;;152.18;56.83;;;6.00;99.90;;;;;;5082110;28;20119;-80
2023/03/04 06:22:22;;;;;;;152.43;58.67;;;6.00;99.90;;;;;;5081702;28;20028;-79
2023/03/04 06:24:48;;;;;;;142.13;54.13;;;6.00;99.90;;;;;;5083261;28;20032;-78
2023/03/04 06:27:15;;;;;;;124.38;52.15;;;6.00;99.90;;;;;;5086278;28;20101;-80
2023/03/04 06:29:41;;;;;;;137.90;54.63;;;6.00;99.90;;;;;;5080486;28;20028;-80
2023/03/04 06:32:07;;;;;;;147.90;57.25;;;6.00;99.90;;;;;;5080726;28;20035;-80
2023/03/04 06:34:32;;;;;;;137.70;55.85;;;6.10;99.90;;;;;;5080299;28;20432;-81
2023/03/04 06:36:58;;;;;;;138.10;54.83;;;6.10;99.90;;;;;;5082800;28;20039;-79
2023/03/04 06:39:24;;;;;;;139.63;57.42;;;6.20;99.90;;;;;;5083319;28;20031;-79
2023/03/04 06:41:50;;;;;;;168.77;61.08;;;6.20;99.90;;;;;;5080027;28;20116;-80
2023/03/04 06:44:16;;;;;;;136.07;53.42;;;6.30;99.90;;;;;;5080415;28;20069;-80
2023/03/04 06:46:41;;;;;;;121.78;52.42;;;6.30;99.90;;;;;;5080444;28;20111;-79
2023/03/04 06:49:07;;;;;;;151.82;55.92;;;6.30;99.90;;;;;;5083844;28;20020;-79
2023/03/04 06:51:33;;;;;;;130.70;50.50;;;6.30;99.90;;;;;;5080926;28;20027;-81
2023/03/04 06:53:58;;;;;;;125.55;50.05;;;6.20;99.90;;;;;;5085066;28;20107;-81
2023/03/04 06:56:24;;;;;;;120.78;49.55;;;6.20;99.90;;;;;;5085149;28;20050;-80
2023/03/04 06:58:50;;;;;;;126.97;52.47;;;6.30;99.90;;;;;;5082536;28;20031;-80
2023/03/04 07:01:22;;;;;;;125.63;50.00;;;6.30;99.90;;;;;;5080653;28;20024;-80
2023/03/04 07:03:48;;;;;;;;;;;6.30;99.90;;;;;;5082806;28;20036;-78
2023/03/04 07:06:16;;;;;;;137.77;58.00;;;6.30;99.90;;;;;;5083064;28;20020;-82
2023/03/04 07:08:43;;;;;;;145.85;63.72;;;6.40;99.90;;;;;;5082040;28;20028;-79
2023/03/04 07:11:09;;;;;;;142.65;60.10;;;6.40;99.90;;;;;;5085117;28;20069;-79
2023/03/04 07:13:37;;;;;;;146.45;60.03;;;6.50;99.90;;;;;;5080694;28;20472;-79
2023/03/04 07:16:08;;;;;;;119.53;48.78;;;6.70;99.90;;;;;;5079344;28;20025;-81
2023/03/04 07:18:34;;;;;;;134.82;61.28;;;6.60;99.90;;;;;;5083511;28;20032;-79
2023/03/04 07:21:00;;;;;;;126.32;50.85;;;6.60;99.90;;;;;;5087242;28;20499;-82
2023/03/04 07:23:25;;;;;;;132.30;52.85;;;6.70;99.90;;;;;;5085597;28;20054;-79
2023/03/04 07:25:51;;;;;;;116.38;50.20;;;6.80;99.90;;;;;;5083403;28;20062;-81
2023/03/04 07:28:17;;;;;;;114.05;49.75;;;6.80;99.90;;;;;;5093517;28;20544;-80
2023/03/04 07:30:43;;;;;;;107.20;46.83;;;6.80;99.90;;;;;;5083738;28;20028;-78
2023/03/04 07:33:09;;;;;;;106.75;42.65;;;6.90;99.90;;;;;;5089393;28;20425;-79
2023/03/04 07:35:34;;;;;;;113.68;44.78;;;6.90;99.90;;;;;;5081918;28;20029;-80
2023/03/04 07:38:00;;;;;;;106.25;43.13;;;7.00;99.90;;;;;;5089264;28;20028;-80
2023/03/04 07:40:26;;;;;;;108.45;47.03;;;7.00;99.90;;;;;;5089136;28;20029;-79
2023/03/04 07:42:53;;;;;;;129.38;56.97;;;7.10;99.90;;;;;;5086232;28;20028;-79
2023/03/04 07:45:19;;;;;;;92.50;41.47;;;7.10;99.90;;;;;;5085392;28;20039;-81
2023/03/04 07:47:45;;;;;;;94.85;38.45;;;7.20;99.90;;;;;;5083332;28;20325;-78
2023/03/04 07:50:12;;;;;;;96.43;43.53;;;7.10;99.90;;;;;;5089215;28;20076;-80
2023/03/04 07:52:43;;;;;;;116.63;47.30;;;7.20;99.90;;;;;;5078340;28;20098;-79
2023/03/04 07:55:11;;;;;;;114.47;50.88;;;7.30;99.90;;;;;;5081708;28;20044;-80
2023/03/04 07:57:41;;;;;;;98.53;43.17;;;7.50;99.90;;;;;;5096288;28;20407;-82
2023/03/04 08:00:08;;;;;;;109.65;45.58;;;7.50;99.90;;;;;;5096548;28;20058;-78
2023/03/04 08:02:33;;;;;;;106.30;44.47;;;7.60;99.90;;;;;;5087611;28;20513;-80
2023/03/04 08:04:59;;;;;;;106.35;41.75;;;7.70;99.90;;;;;;5081635;28;20127;-79
2023/03/04 08:07:25;;;;;;;117.47;47.60;;;7.80;99.90;;;;;;5082430;28;20414;-80
2023/03/04 08:09:50;;;;;;;126.35;54.08;;;7.80;99.90;;;;;;5084567;28;20062;-78
2023/03/04 08:12:17;;;;;;;100.20;44.13;;;7.70;99.90;;;;;;5087771;28;20028;-77
2023/03/04 08:14:42;;;;;;;120.43;49.97;;;7.80;99.90;;;;;;5096538;28;20021;-78
2023/03/04 08:17:08;;;;;;;193.88;85.80;;;7.80;99.90;;;;;;5095400;28;20035;-77
2023/03/04 08:19:35;;;;;;;114.75;50.65;;;7.90;99.90;;;;;;5096687;28;20027;-80
2023/03/04 08:22:01;;;;;;;107.32;45.83;;;7.90;99.90;;;;;;5096045;28;20035;-80
2023/03/04 08:24:26;;;;;;;124.10;53.83;;;8.00;99.90;;;;;;5096907;28;20520;-77
2023/03/04 08:26:52;;;;;;;86.20;38.65;;;8.00;99.90;;;;;;5096481;28;20035;-77
2023/03/04 08:29:21;;;;;;;97.10;44.88;;;8.10;99.90;;;;;;5095838;28;20024;-80
2023/03/04 08:31:49;;;;;;;117.65;53.92;;;8.10;99.90;;;;;;5096106;28;20031;-79
2023/03/04 08:34:16;;;;;;;85.53;39.70;;;8.20;99.90;;;;;;5096428;28;20024;-77
2023/03/04 08:36:41;;;;;;;102.88;47.13;;;8.20;99.90;;;;;;5095743;28;20032;-82
2023/03/04 08:39:10;;;;;;;93.40;43.92;;;8.20;99.90;;;;;;5096042;28;20047;-80
2023/03/04 08:41:36;;;;;;;94.13;45.92;;;8.30;99.90;;;;;;5094702;28;20047;-80
2023/03/04 08:44:02;;;;;;;75.68;37.42;;;8.40;99.90;;;;;;5088898;28;20453;-79
2023/03/04 08:46:28;;;;;;;78.13;38.08;;;8.40;99.90;;;;;;5074585;28;20123;-82
2023/03/04 08:48:53;;;;;;;91.97;41.22;;;8.40;99.90;;;;;;5075288;28;20472;-81
2023/03/04 08:51:19;;;;;;;85.55;40.08;;;8.50;99.90;;;;;;5074523;28;20020;-81
2023/03/04 08:53:45;;;;;;;75.55;36.22;;;8.60;99.90;;;;;;5074566;28;20059;-79
2023/03/04 08:56:12;;;;;;;81.68;35.95;;;8.60;99.90;;;;;;5075173;28;20076;-79
2023/03/04 08:58:38;;;;;;;69.60;33.75;;;8.70;99.90;;;;;;5075745;28;20035;-79
2023/03/04 09:01:08;;;;;;;70.53;33.10;;;8.70;99.90;;;;;;5076971;28;20024;-79
2023/03/04 09:03:33;;;;;;;83.43;37.45;;;8.70;99.90;;;;;;5094264;28;20024;-80
2023/03/04 09:06:01;;;;;;;121.22;53.63;;;8.70;99.90;;;;;;5091388;28;20112;-79
2023/03/04 09:08:28;;;;;;;84.85;43.28;;;8.80;99.90;;;;;;5092241;28;20498;-83
2023/03/04 09:10:54;;;;;;;92.55;43.78;;;9.00;99.90;;;;;;5094065;28;20487;-80
2023/03/04 09:13:24;;;;;;;119.15;54.33;;;9.10;99.90;;;;;;5094245;28;20028;-79
2023/03/04 09:15:51;;;;;;;133.68;63.17;;;9.10;99.90;;;;;;5095398;28;20103;-80
2023/03/04 09:18:19;;;;;;;97.88;43.10;;;9.10;99.90;;;;;;5093877;28;20053;-80
2023/03/04 09:20:46;;;;;;;136.82;62.55;;;9.10;99.90;;;;;;5077388;28;20039;-80
2023/03/04 09:23:11;;;;;;;82.40;40.25;;;9.20;99.90;;;;;;5074036;28;20063;-82
2023/03/04 09:25:38;;;;;;;105.43;54.30;;;9.20;99.90;;;;;;5084544;28;20056;-78
2023/03/04 09:28:04;;;;;;;78.38;40.20;;;9.20;99.90;;;;;;5095643;28;20036;-79
2023/03/04 09:30:30;;;;;;;83.05;41.15;;;9.20;99.90;;;;;;5093427;28;20020;-81
2023/03/04 09:32:56;;;;;;;96.53;43.58;;;9.20;99.90;;;;;;5089888;28;20025;-80
2023/03/04 09:35:22;;;;;;;105.72;47.53;;;9.30;99.90;;;;;;5074979;28;20029;-79
2023/03/04 09:37:49;;;;;;;177.25;74.22;;;9.60;99.90;;;;;;5074628;28;20086;-80
2023/03/04 09:40:26;;;;;;;114.35;51.75;;;9.70;99.90;;;;;;5073583;28;20208;-79
2023/03/04 09:42:57;;;;;;;102.50;48.72;;;9.70;99.90;;;;;;5074960;28;20017;-81
2023/03/04 09:45:30;;;;;;;120.97;59.15;;;9.70;99.90;;;;;;5079723;28;20035;-80
2023/03/04 09:47:56;;;;;;;78.55;41.38;;;9.80;99.90;;;;;;5078907;28;20375;-81
2023/03/04 09:50:22;;;;;;;80.72;39.70;;;9.80;99.90;;;;;;5074569;28;20032;-81
2023/03/04 09:52:51;;;;;;;85.78;39.03;;;9.90;99.90;;;;;;5094699;28;20399;-81
2023/03/04 09:55:41;;;;;;;79.55;36.90;;;10.00;99.90;;;;;;5094578;28;20127;-83
2023/03/04 09:58:40;;;;;;;79.78;40.97;;;10.00;99.90;;;;;;5094622;28;20028;-80
2023/03/04 10:01:25;;;;;;;83.55;39.95;;;10.00;99.90;;;;;;5093551;28;20115;-80
2023/03/04 10:04:01;;;;;;;77.97;38.20;;;10.00;99.90;;;;;;5081265;28;20046;-81
2023/03/04 10:06:29;;;;;;;72.27;35.80;;;10.10;99.90;;;;;;5072925;28;20036;-78
2023/03/04 10:09:02;;;;;;;75.28;39.35;;;10.20;99.90;;;;;;5074635;28;20074;-77
2023/03/04 10:11:37;;;;;;;84.40;40.55;;;10.30;99.90;;;;;;5074608;28;20024;-77
2023/03/04 10:14:38;;;;;;;84.57;42.42;;;10.20;99.90;;;;;;5073628;28;20414;-79
2023/03/04 10:17:38;;;;;;;84.95;39.47;;;10.10;99.90;;;;;;5074581;28;20034;-78
2023/03/04 10:20:19;;;;;;;87.53;43.10;;;10.00;99.90;;;;;;5073605;28;20059;-82
2023/03/04 10:22:47;;;;;;;76.47;40.20;;;10.00;99.90;;;;;;5072757;28;20119;-81
2023/03/04 10:25:21;;;;;;;85.93;43.45;;;9.90;99.90;;;;;;5074184;28;20540;-80
2023/03/04 10:28:14;;;;;;;82.63;39.08;;;10.00;99.90;;;;;;5073927;28;20437;-80
2023/03/04 10:31:15;;;;;;;85.35;42.10;;;9.90;99.90;;;;;;5074332;28;20103;-80
2023/03/04 10:33:42;;;;;;;79.47;39.40;;;9.80;99.90;;;;;;5073805;28;20059;-78
2023/03/04 10:36:28;;;;;;;87.53;43.53;;;9.80;99.90;;;;;;5074278;28;20483;-80
2023/03/04 10:39:06;;;;;;;85.50;44.78;;;10.00;99.90;;;;;;5072746;28;20118;-79
2023/03/04 10:41:34;;;;;;;78.10;41.03;;;10.10;99.90;;;;;;5073672;28;20036;-79
2023/03/04 10:44:16;;;;;;;96.47;45.20;;;10.10;99.90;;;;;;5073571;28;20028;-79
2023/03/04 10:46:47;;;;;;;92.78;45.72;;;10.20;99.90;;;;;;5073854;28;20063;-84
2023/03/04 10:49:17;;;;;;;88.70;45.63;;;10.40;99.90;;;;;;5073824;28;20373;-82
2023/03/04 10:51:53;;;;;;;97.47;45.95;;;10.50;99.90;;;;;;5076886;28;20031;-81
2023/03/04 10:54:35;;;;;;;90.15;45.70;;;10.50;99.90;;;;;;5072008;28;20522;-80
2023/03/04 10:57:14;;;;;;;82.25;42.53;;;10.50;99.90;;;;;;5073818;28;20435;-81
2023/03/04 11:00:25;;;;;;;121.50;61.08;;;10.70;99.90;;;;;;5073551;28;20025;-80
2023/03/04 11:02:50;;;;;;;140.90;67.78;;;10.60;99.90;;;;;;5066252;28;20053;-78
2023/03/04 11:05:24;;;;;;;99.43;50.42;;;10.80;99.90;;;;;;5093406;28;20032;-77
2023/03/04 11:07:51;;;;;;;110.00;53.72;;;10.80;99.90;;;;;;5093491;28;20032;-81
2023/03/04 11:10:30;;;;;;;97.22;50.47;;;10.90;99.90;;;;;;5092602;28;20032;-78
2023/03/04 11:12:56;;;;;;;89.82;47.58;;;11.10;99.90;;;;;;5073105;28;20016;-79
2023/03/04 11:15:26;;;;;;;70.43;39.25;;;11.20;99.90;;;;;;5074836;28;20341;-81
2023/03/04 11:18:12;;;;;;;67.57;35.08;;;11.20;99.90;;;;;;5086058;28;20024;-80
2023/03/04 11:20:41;;;;;;;71.95;39.90;;;11.20;99.90;;;;;;5078447;28;20031;-80
2023/03/04 11:23:15;;;;;;;63.92;35.78;;;11.40;99.90;;;;;;5083418;28;20467;-80
2023/03/04 11:25:46;;;;;;;170.65;76.60;;;11.40;99.90;;;;;;5073772;28;20039;-79
2023/03/04 11:28:35;;;;;;;73.45;37.55;;;11.50;99.90;;;;;;5080490;28;20058;-81
2023/03/04 11:31:05;;;;;;;125.85;56.15;;;11.50;99.90;;;;;;5067414;28;20052;-81
2023/03/04 11:34:00;;;;;;;154.77;75.30;;;11.70;99.90;;;;;;5093693;28;20024;-81
2023/03/04 11:36:34;;;;;;;181.35;85.68;;;11.80;99.90;;;;;;5084660;28;20420;-81
2023/03/04 11:39:03;;;;;;;102.20;52.80;;;11.90;99.90;;;;;;5091022;28;20036;-81
2023/03/04 11:41:39;;;;;;;112.28;52.70;;;11.80;99.90;;;;;;5092326;28;20032;-81
2023/03/04 11:44:07;;;;;;;80.43;41.22;;;11.90;99.90;;;;;;5090428;28;20094;-80
2023/03/04 11:47:11;;;;;;;78.45;42.15;;;12.00;99.90;;;;;;5091986;28;20028;-78
2023/03/04 11:49:51;;;;;;;109.90;54.10;;;12.10;99.90;;;;;;5073468;28;20024;-79
2023/03/04 11:52:44;;;;;;;84.80;45.92;;;11.90;99.90;;;;;;5090606;28;20056;-80
2023/03/04 11:55:25;;;;;;;97.43;54.70;;;11.70;99.90;;;;;;5091586;28;20044;-80
2023/03/04 11:58:20;;;;;;;91.17;57.07;;;11.70;99.90;;;;;;5091653;28;20039;-83
2023/03/04 12:01:16;;;;;;;55.85;29.45;;;11.70;99.90;;;;;;5089952;28;20347;-89
2023/03/04 12:03:58;;;;;;;52.67;29.92;;;11.70;99.90;;;;;;5090382;28;20042;-80
2023/03/04 12:06:43;;;;;;;56.00;30.13;;;11.70;99.90;;;;;;5091747;28;20085;-84
2023/03/04 12:09:59;;;;;;;53.38;27.42;;;11.80;99.90;;;;;;5095727;28;20103;-79
2023/03/04 12:12:40;;;;;;;71.35;34.92;;;11.90;99.90;;;;;;5092566;28;20032;-85
2023/03/04 12:15:27;;;;;;;70.32;33.20;;;12.00;99.90;;;;;;5092689;28;20028;-83
2023/03/04 12:18:17;;;;;;;62.55;31.23;;;12.10;99.90;;;;;;5095102;28;20035;-81
2023/03/04 12:21:10;;;;;;;66.22;32.75;;;12.20;99.90;;;;;;5093783;28;20020;-80
2023/03/04 12:23:39;;;;;;;59.42;29.08;;;12.50;99.90;;;;;;5094457;28;20020;-79
2023/03/04 12:26:42;;;;;;;64.50;34.25;;;12.50;99.90;;;;;;5093806;28;20084;-82
2023/03/04 12:29:30;;;;;;;51.30;28.45;;;12.40;99.90;;;;;;5094751;28;20410;-84
2023/03/04 12:32:24;;;;;;;54.53;28.38;;;12.30;99.90;;;;;;5094938;28;20024;-80
2023/03/04 12:35:22;;;;;;;53.38;28.20;;;12.20;99.90;;;;;;5092410;28;20028;-78
2023/03/04 12:38:03;;;;;;;57.08;29.08;;;12.10;99.90;;;;;;5095199;28;20034;-80
2023/03/04 12:41:07;;;;;;;67.68;37.17;;;11.90;99.90;;;;;;5094594;28;20030;-80